• Join FlightAware (Why Join?)
  • Login
  • US Flag 
08:55PM EST


 

Airport Tracker/Info


-or-


 

Live Flight TrackerFlight Track Log ✈ UAL235 ✈ 25-Apr-2013 ✈ KMCO - KDEN

Flight Track Log - Related Links

Times and Time Zones

All times are in EDT time to prevent confusion due to time zone crossing. See the UAL235 flight status page for this flight to view local times or setup timezone preferences in your user account.

Time Position Orientation Groundspeed Altitude Reporting Facility
EDT Latitude Longitude Course Direction KTS MPH feet Rate Location/Type
10:32AM 28.4167 -81.3167 270° West 171 197 700  Level Orlando TRACON
10:33AM 28.3667 -81.3333 196° South 218 251 2,200 1,980 Climbing Orlando TRACON
10:34AM 28.3000 -81.3833 213° Southwest 289 333 5,000 2,640 Climbing Orlando TRACON
10:35AM 28.4167 -81.7859 270° West  Level FlightAware Approximate
10:35AM 28.3000 -81.4667 270° West 286 329 7,800  Level Orlando TRACON
10:36AM 28.4167 -81.9074 270° West  Level FlightAware Approximate
10:36AM 28.3167 -81.5667 281° West 285 328 10,800  Level Orlando TRACON
10:37AM 28.4167 -82.0289 270° West  Level FlightAware Approximate
10:37AM 28.3242 -81.7278 273° West 318 366 12,100  Level Jacksonville Center
10:38AM 28.3397 -81.8478 278° West 363 418 14,300 2,040 Climbing Jacksonville Center
10:39AM 28.3492 -81.9703 275° West 391 450 16,200 1,800 Climbing Jacksonville Center
10:40AM 28.3625 -82.1047 276° West 416 479 17,900 1,500 Climbing Jacksonville Center
10:41AM 28.3758 -82.2344 277° West 421 484 19,200 1,440 Climbing Jacksonville Center
10:42AM 28.3867 -82.3569 276° West 434 499 20,800 1,380 Climbing Jacksonville Center
10:43AM 28.4081 -82.4914 280° West 439 505 22,000 1,380 Climbing Jacksonville Center
10:44AM 28.5000 -82.5783 320° Northwest 408 470 23,600 1,320 Climbing Jacksonville Center
10:45AM 28.5942 -82.6681 320° Northwest 419 482 24,700 1,140 Climbing Jacksonville Center
10:46AM 28.6925 -82.7506 324° Northwest 433 498 25,900 1,140 Climbing Jacksonville Center
10:47AM 28.7928 -82.8358 323° Northwest 438 504 27,000 1,020 Climbing Jacksonville Center
10:48AM 28.8928 -82.9211 323° Northwest 444 511 28,000 1,260 Climbing Jacksonville Center
10:49AM 28.9889 -83.0017 324° Northwest 444 511 29,600 1,200 Climbing Jacksonville Center
10:50AM 29.0869 -83.0875 323° Northwest 444 511 30,500 1,020 Climbing Jacksonville Center
10:51AM 29.1806 -83.1708 322° Northwest 439 505 31,700 720 Climbing Jacksonville Center
10:52AM 29.2786 -83.2544 323° Northwest 439 505 32,000 60 Climbing Jacksonville Center
10:53AM 29.3722 -83.3333 324° Northwest 439 505 31,900 -60 Descending Jacksonville Center
10:54AM 29.4700 -83.4197 322° Northwest 439 505 31,900  Level Jacksonville Center
10:55AM 29.5739 -83.5086 323° Northwest 439 505 31,900  Level Jacksonville Center
10:56AM 29.6694 -83.5953 322° Northwest 439 505 31,900  Level Jacksonville Center
10:57AM 29.7631 -83.6772 323° Northwest 439 505 31,900  Level Jacksonville Center
10:58AM 29.8606 -83.7594 324° Northwest 439 505 31,900  Level Jacksonville Center
10:59AM 29.9581 -83.8444 323° Northwest 439 505 31,900  Level Jacksonville Center
11:00AM 30.0536 -83.9292 323° Northwest 439 505 32,000  Climbing Jacksonville Center
11:01AM 30.1467 -84.0119 322° Northwest 439 505 32,000 -60 Level Jacksonville Center
11:02AM 30.2419 -84.0947 323° Northwest 439 505 31,900 -60 Descending Jacksonville Center
11:03AM 30.3353 -84.1778 322° Northwest 439 505 31,900  Level Jacksonville Center
11:04AM 30.4283 -84.2608 322° Northwest 434 499 32,000  Climbing Jacksonville Center
11:05AM 30.5233 -84.3492 321° Northwest 434 499 31,900  Descending Jacksonville Center
11:06AM 30.5847 -84.4636 302° West 418 481 32,000  Climbing Jacksonville Center
11:07AM 30.6353 -84.5850 296° West 418 481 31,900 -60 Descending Jacksonville Center
11:08AM 30.6794 -84.7089 293° West 418 481 31,900  Level Jacksonville Center
11:09AM 30.7217 -84.8306 292° West 413 475 31,900  Level Jacksonville Center
11:10AM 30.7678 -84.9525 294° West 413 475 31,900  Level Jacksonville Center
11:11AM 30.8075 -85.0644 292° West 413 475 31,900  Level Jacksonville Center
11:12AM 30.8514 -85.1889 292° West 413 475 31,900  Level Jacksonville Center
11:13AM 30.8969 -85.3136 293° West 413 475 32,000  Climbing Jacksonville Center
11:14AM 30.9406 -85.4358 293° West 413 475 32,000  Level Jacksonville Center
11:15AM 30.9839 -85.5606 292° West 413 475 32,000 -60 Level Jacksonville Center
11:16AM 31.0272 -85.6831 292° West 413 475 31,900  Descending Jacksonville Center
11:17AM 31.0683 -85.8078 291° West 413 475 32,000  Climbing Jacksonville Center
11:18AM 31.1092 -85.9303 291° West 413 475 32,000  Level Jacksonville Center
11:19AM 31.1542 -86.0533 293° West 413 475 32,000  Level Jacksonville Center
11:20AM 31.1972 -86.1736 293° West 413 475 32,000  Level Jacksonville Center
11:21AM 31.2397 -86.2992 292° West 413 475 32,000  Level Jacksonville Center
11:22AM 31.2822 -86.4222 292° West 413 475 32,000  Level Jacksonville Center
11:23AM 31.3286 -86.5553 292° West 413 475 32,000  Level Jacksonville Center
11:24AM 31.3689 -86.6761 291° West 413 475 32,000  Level Jacksonville Center
11:25AM 31.4133 -86.7883 295° West 393 452 32,000  Level Atlanta Center
11:26AM 31.4525 -86.9111 291° West 393 452 32,000  Level Atlanta Center
11:27AM 31.4975 -87.0319 294° West 399 459 32,000  Level Atlanta Center
11:28AM 31.5383 -87.1550 291° West 399 459 32,000  Level Atlanta Center
11:29AM 31.5828 -87.2883 291° West 399 459 32,000  Level Atlanta Center
11:30AM 31.6256 -87.4094 293° West 399 459 32,000  Level Atlanta Center
11:31AM 31.6639 -87.5303 290° West 399 459 32,000  Level Atlanta Center
11:32AM 31.7042 -87.6514 291° West 399 459 32,000  Level Atlanta Center
11:33AM 31.7444 -87.7728 291° West 399 459 32,000  Level Atlanta Center
11:34AM 31.7867 -87.8967 292° West 399 459 32,000  Level Atlanta Center
11:35AM 31.8267 -88.0181 291° West 399 459 32,000  Level Atlanta Center
11:37AM 31.9025 -88.2578 290° West 407 468 32,000  Level Memphis Center
11:38AM 31.9464 -88.3892 292° West 407 468 32,000  Level Memphis Center
11:39AM 31.9922 -88.5081 294° West 407 468 32,000  Level Memphis Center
11:40AM 32.0419 -88.6272 296° West 407 468 32,000  Level Memphis Center
11:41AM 32.0997 -88.7267 304° West 402 463 32,000  Level Memphis Center
11:42AM 32.1761 -88.8283 312° West 407 468 32,000  Level Memphis Center
11:44AM 32.2242 -88.9515 295° West  Level FlightAware Approximate
11:44AM 32.3244 -89.0322 295° West 412 474 32,000  Level Memphis Center
11:45AM 32.4008 -89.1319 312° West 412 474 32,000  Level Memphis Center
11:46AM 32.4769 -89.2344 311° West 412 474 32,000  Level Memphis Center
11:47AM 32.5528 -89.3344 312° West 407 468 32,000  Level Memphis Center
11:48AM 32.6247 -89.4397 309° West 407 468 32,000  Level Memphis Center
11:49AM 32.6714 -89.5578 295° West 396 456 32,000  Level Memphis Center
11:50AM 32.7158 -89.6758 294° West 391 450 32,000  Level Memphis Center
11:51AM 32.7603 -89.7964 294° West 396 456 32,000  Level Memphis Center
11:52AM 32.8028 -89.9172 293° West 396 456 32,000  Level Memphis Center
11:53AM 32.8531 -90.0506 294° West 396 456 32,000  Level Memphis Center
11:54AM 32.8994 -90.1667 295° West 396 456 32,000  Level Memphis Center
11:55AM 32.9433 -90.2831 294° West 396 456 32,000  Level Memphis Center
11:56AM 32.9872 -90.4044 293° West 396 456 32,000  Level Memphis Center
11:57AM 33.0289 -90.5233 293° West 396 456 32,000  Level Memphis Center
11:58AM 33.0744 -90.6400 295° West 396 456 32,000  Level Memphis Center
11:59AM 33.1181 -90.7614 293° West 396 456 32,000  Level Memphis Center
12:00PM 33.1594 -90.8808 293° West 396 456 32,000  Level Memphis Center
12:01PM 33.1986 -90.9878 294° West 396 456 32,000  Level Memphis Center
12:02PM 33.2417 -91.1050 294° West 396 456 32,000  Level Memphis Center
12:03PM 33.2828 -91.2244 292° West 396 456 32,000  Level Memphis Center
12:04PM 33.3256 -91.3417 294° West 396 456 32,000  Level Memphis Center
12:05PM 33.3706 -91.4642 294° West 396 456 32,000  Level Memphis Center
12:06PM 33.4092 -91.5817 292° West 396 456 32,000  Level Memphis Center
12:07PM 33.4558 -91.6967 296° West 391 450 32,000  Level Memphis Center
12:08PM 33.4983 -91.8169 293° West 391 450 32,000  Level Memphis Center
12:09PM 33.5428 -91.9375 294° West 391 450 32,000  Level Memphis Center
12:10PM 33.5811 -92.0528 292° West 391 450 32,000  Level Memphis Center
12:11PM 33.6233 -92.1733 293° West 391 450 32,000  Level Memphis Center
12:12PM 33.6653 -92.2914 293° West 391 450 32,000  Level Memphis Center
12:13PM 33.7050 -92.4097 292° West 391 450 32,000  Level Memphis Center
12:14PM 33.7450 -92.5281 292° West 391 450 32,000  Level Memphis Center
12:15PM 33.7886 -92.6467 294° West 391 450 32,000  Level Memphis Center
12:16PM 33.8281 -92.7678 291° West 391 450 32,000  Level Memphis Center
12:17PM 33.8694 -92.8889 292° West 391 450 32,000  Level Memphis Center
12:18PM 33.9111 -93.0053 293° West 391 450 32,000  Level Memphis Center
12:19PM 33.9503 -93.1242 292° West 391 450 32,000  Level Memphis Center
12:20PM 33.9911 -93.2456 292° West 391 450 32,000  Level Memphis Center
12:21PM 34.0322 -93.3622 293° West 391 450 32,000  Level Memphis Center
12:24PM 34.1294 -93.6525 292° West 394 453 32,000  Level Fort Worth Center
12:25PM 34.1686 -93.7714 292° West 388 447 32,000  Level Fort Worth Center
12:26PM 34.2075 -93.8903 292° West 388 447 32,000  Level Fort Worth Center
12:27PM 34.2461 -94.0092 291° West 383 441 32,000  Level Fort Worth Center
12:28PM 34.2847 -94.1283 291° West 383 441 32,000  Level Fort Worth Center
12:29PM 34.3233 -94.2475 291° West 383 441 32,000  Level Fort Worth Center
12:30PM 34.3617 -94.3669 291° West 383 441 32,000  Level Fort Worth Center
12:31PM 34.4000 -94.4839 292° West 383 441 32,000  Level Fort Worth Center
12:32PM 34.4383 -94.6033 291° West 383 441 32,000  Level Fort Worth Center
12:33PM 34.4764 -94.7231 291° West 383 441 32,000  Level Fort Worth Center
12:34PM 34.5144 -94.8453 291° West 383 441 32,000  Level Fort Worth Center
12:35PM 34.5522 -94.9603 292° West 383 441 32,000  Level Fort Worth Center
12:36PM 34.5919 -95.0778 292° West 377 434 32,000  Level Fort Worth Center
12:37PM 34.6256 -95.2003 288° West 382 440 32,000  Level Fort Worth Center
12:38PM 34.6608 -95.3131 291° West 387 445 32,000  Level Fort Worth Center
12:39PM 34.6981 -95.4308 291° West 387 445 32,000  Level Fort Worth Center
12:40PM 34.7375 -95.5486 292° West 382 440 32,000  Level Fort Worth Center
12:41PM 34.7706 -95.6642 289° West 376 433 32,000  Level Fort Worth Center
12:42PM 34.8056 -95.7850 289° West 376 433 32,000  Level Fort Worth Center
12:43PM 34.8467 -95.9056 293° West 376 433 32,000  Level Fort Worth Center
12:44PM 34.8814 -96.0239 290° West 381 438 32,000  Level Fort Worth Center
12:45PM 34.9181 -96.1450 290° West 381 438 32,000  Level Fort Worth Center
12:46PM 34.9547 -96.2658 290° West 386 444 32,000  Level Fort Worth Center
12:47PM 34.9911 -96.3872 290° West 386 444 32,000  Level Fort Worth Center
12:48PM 35.0297 -96.5058 292° West 386 444 32,000  Level Fort Worth Center
12:49PM 35.0658 -96.6272 290° West 386 444 32,000  Level Fort Worth Center
12:50PM 35.1019 -96.7461 290° West 386 444 32,000  Level Fort Worth Center
12:51PM 35.1381 -96.8703 290° West 386 444 32,000  Level Fort Worth Center
12:52PM 35.1739 -96.9919 290° West 386 444 32,000  Level Fort Worth Center
12:53PM 35.2119 -97.1164 291° West 386 444 32,000  Level Fort Worth Center
12:54PM 35.2539 -97.2533 291° West 386 444 32,000  Level Fort Worth Center
12:55PM 35.2914 -97.3781 290° West 386 444 32,000  Level Fort Worth Center
12:56PM 35.3269 -97.5025 289° West 386 444 32,000  Level Fort Worth Center
12:57PM 35.3603 -97.6172 290° West 391 450 32,000  Level Fort Worth Center
12:58PM 35.4119 -97.7319 299° West 386 444 32,000  Level Fort Worth Center
12:59PM 35.4639 -97.8469 299° West 386 444 32,000  Level Fort Worth Center
01:01PM 35.5692 -98.0808 299° West 390 449 32,000  Level Kansas City Center
01:02PM 35.6208 -98.1975 299° West 389 448 32,000  Level Kansas City Center
01:03PM 35.6825 -98.3383 298° West 391 450 32,000  Level Kansas City Center
01:04PM 35.7281 -98.4419 298° West 390 449 32,000  Level Kansas City Center
01:05PM 35.7792 -98.5603 298° West 391 450 32,000  Level Kansas City Center
01:06PM 35.8408 -98.7011 298° West 389 448 32,000 600 Level Kansas City Center
01:07PM 35.8867 -98.8067 298° West 387 445 33,300 960 Climbing Kansas City Center
01:08PM 35.9353 -98.9186 298° West 377 434 34,000 300 Climbing Kansas City Center
01:09PM 35.9928 -99.0542 298° West 372 428 34,000  Level Kansas City Center
01:10PM 36.0428 -99.1664 299° West 372 428 34,000  Level Kansas City Center
01:11PM 36.0947 -99.2775 300° West 374 430 34,000  Level Kansas City Center
01:12PM 36.1397 -99.3956 295° West 371 427 34,000  Level Kansas City Center
01:13PM 36.1881 -99.5083 298° West 371 427 34,000  Level Kansas City Center
01:14PM 36.2369 -99.6222 298° West 374 430 34,000  Level Kansas City Center
01:15PM 36.2853 -99.7369 298° West 374 430 34,000  Level Kansas City Center
01:16PM 36.3436 -99.8731 298° West 372 428 34,000  Level Kansas City Center
01:17PM 36.4103 -99.9792 308° West 384 442 34,000  Level Kansas City Center
01:18PM 36.4775 -100.0836 309° West 386 444 34,000  Level Kansas City Center
01:19PM 36.5461 -100.1886 309° West 388 447 34,000  Level Kansas City Center
01:21PM 36.6128 -100.2928 309° West 386 444 34,000  Level Kansas City Center
01:22PM 36.6908 -100.4125 309° West 387 445 34,000  Level Kansas City Center
01:23PM 36.7556 -100.5125 309° West 387 445 34,000  Level Kansas City Center
01:24PM 36.8300 -100.6314 308° West 389 448 34,000  Level Kansas City Center
01:25PM 36.8956 -100.7322 309° West 389 448 34,000  Level Kansas City Center
01:26PM 36.9594 -100.8344 308° West 389 448 34,000  Level Kansas City Center
01:27PM 37.0356 -100.9547 308° West 392 451 34,000  Level Kansas City Center
01:28PM 37.1031 -101.0544 310° West 391 450 34,000  Level Kansas City Center
01:29PM 37.1833 -101.1722 311° West 394 453 34,000  Level Kansas City Center
01:30PM 37.2522 -101.2742 310° West 397 457 34,000  Level Kansas City Center
01:31PM 37.3339 -101.3933 311° West 400 460 34,000  Level Kansas City Center
01:32PM 37.4033 -101.4953 311° West 399 459 34,000  Level Kansas City Center
01:33PM 37.4844 -101.6158 310° West 401 461 34,000  Level Kansas City Center
01:34PM 37.5533 -101.7183 310° West 400 460 34,000  Level Kansas City Center
01:35PM 37.6225 -101.8211 310° West 401 461 34,000  Level Kansas City Center
01:36PM 37.7028 -101.9403 310° West 400 460 34,000  Level Kansas City Center
01:37PM 37.7822 -102.0594 310° West 397 457 34,000  Level Denver Center
01:38PM 37.8525 -102.1611 311° West 400 460 34,000  Level Denver Center
01:39PM 37.9381 -102.2761 313° West 401 461 34,000  Level Denver Center
01:40PM 38.0111 -102.3744 313° West 400 460 34,000  Level Denver Center
01:41PM 38.0953 -102.4917 312° West 402 463 34,000  Level Denver Center
01:42PM 38.1711 -102.5922 314° West 410 472 34,000  Level Denver Center
01:43PM 38.2444 -102.6936 313° West 408 470 34,000 -480 Level Denver Center
01:44PM 38.3303 -102.8119 313° West 409 471 33,100 -1,740 Descending Denver Center
01:45PM 38.4019 -102.9119 312° West 400 460 30,400 -1,500 Descending Denver Center
01:46PM 38.4881 -103.0311 313° West 408 470 30,000 -480 Descending Denver Center
01:47PM 38.5583 -103.1294 312° West 394 453 29,500 -720 Descending Denver Center
01:48PM 38.6322 -103.2325 313° West 383 441 28,600 -960 Descending Denver Center
01:50PM 38.7050 -103.3336 313° West 383 441 27,600 -1,020 Descending Denver Center
01:51PM 38.7792 -103.4397 312° West 375 432 26,500 -1,080 Descending Denver Center
01:52PM 38.8569 -103.5494 312° West 374 430 25,400 -1,020 Descending Denver Center
01:53PM 38.9267 -103.6478 312° West 369 425 24,400 -960 Descending Denver Center
01:54PM 38.9944 -103.7433 312° West 361 415 23,500 -1,080 Descending Denver Center
01:55PM 39.0617 -103.8386 312° West 356 410 22,200 -1,560 Descending Denver Center
01:56PM 39.1278 -103.9339 312° West 354 407 20,300 -1,860 Descending Denver Center
01:57PM 39.1925 -104.0256 312° West 345 397 18,400 -1,320 Descending Denver Center
01:58PM 39.2592 -104.1225 312° West 322 371 17,600 -1,080 Descending Denver Center
01:59PM 39.2819 -104.2144 288° West 269 310 16,200 -1,440 Descending Denver Center
02:00PM 39.3033 -104.3122 286° West 262 302 14,700 -1,020 Descending Denver Center
02:01PM 39.3236 -104.3950 288° West 239 275 14,200 -780 Descending Denver Center
02:02PM 39.3722 -104.4625 313° West 241 277 13,200 -1,080 Descending Denver Center
02:03PM 39.4264 -104.5172 322° Northwest 253 291 12,000 -1,320 Descending Denver Center
02:04PM 39.4972 -104.5481 341° North 249 287 10,500 -1,320 Descending Denver Center
02:05PM 39.5628 -104.5775 341° North 251 289 9,300 -1,200 Descending Denver Center
02:06PM 39.6314 -104.6083 341° North 244 281 8,100 -780 Descending Denver Center
02:07PM 39.6897 -104.6344 341° North 226 260 7,700 -420 Descending Denver Center